Time;durP1;ratioP1;P1;durP2;ratioP2;P2;SDS_P1;SDS_P2;PMS_P1;PMS_P2;Temp;Humidity;BMP_temperature;BMP_pressure;BME280_temperature;BME280_humidity;BME280_pressure;Samples;Min_cycle;Max_cycle;Signal;HPM_P1;HPM_P2
2021/08/16 00:01:55;;;;;;;12.88;7.70;;;;;;;22.24;59.58;98461.47;263181;1092;115286;-61
2021/08/16 00:06:59;;;;;;;14.50;7.60;;;;;;;22.26;59.85;98465.69;263109;1093;115251;-62
2021/08/16 00:12:02;;;;;;;13.05;9.00;;;;;;;22.27;59.98;98469.23;263286;1093;115391;-62
2021/08/16 00:17:06;;;;;;;12.18;7.73;;;;;;;22.22;59.83;98469.80;263200;1092;116347;-64
2021/08/16 00:22:10;;;;;;;11.60;7.60;;;;;;;22.16;60.14;98476.78;263118;1092;115337;-62
2021/08/16 00:27:13;;;;;;;13.30;7.98;;;;;;;22.12;60.18;98502.55;263339;1093;115160;-62
2021/08/16 00:32:17;;;;;;;18.68;9.35;;;;;;;22.13;60.43;98500.67;263189;1093;115883;-61
2021/08/16 00:37:21;;;;;;;11.73;8.73;;;;;;;22.18;60.79;98488.30;263186;1093;115683;-62
2021/08/16 00:42:25;;;;;;;14.98;8.75;;;;;;;22.24;61.08;98494.00;263270;1093;115015;-61
2021/08/16 00:47:30;;;;;;;13.77;8.90;;;;;;;22.26;61.08;98472.98;263187;1092;115551;-66
2021/08/16 00:52:34;;;;;;;12.43;8.83;;;;;;;22.25;61.42;98471.28;263129;1093;115095;-63
2021/08/16 00:57:38;;;;;;;;;;;;;;;22.24;61.45;98477.73;263222;1092;115094;-62
2021/08/16 01:02:43;;;;;;;16.17;9.47;;;;;;;22.26;61.83;98473.82;263439;1092;101135;-60
2021/08/16 01:07:49;;;;;;;13.40;9.97;;;;;;;22.31;62.00;98460.55;263161;1092;114924;-62
2021/08/16 01:12:53;;;;;;;14.33;9.77;;;;;;;22.35;62.38;98437.48;263105;1093;115565;-60
2021/08/16 01:17:57;;;;;;;12.93;10.33;;;;;;;22.40;62.41;98435.04;263360;1093;115543;-62
2021/08/16 01:23:01;;;;;;;15.53;9.83;;;;;;;22.43;62.38;98428.41;263184;1092;115640;-62
2021/08/16 01:28:04;;;;;;;12.85;8.90;;;;;;;22.45;62.12;98420.91;263379;1093;114852;-65
2021/08/16 01:33:08;;;;;;;14.63;9.83;;;;;;;22.46;62.65;98400.09;263161;1092;115580;-66
2021/08/16 01:38:12;;;;;;;15.85;9.63;;;;;;;22.48;63.00;98379.03;263176;1093;115812;-64
2021/08/16 01:43:16;;;;;;;15.03;9.68;;;;;;;22.45;62.86;98396.51;263238;1093;115618;-64
2021/08/16 01:48:19;;;;;;;14.43;9.70;;;;;;;22.41;62.92;98398.75;263369;1091;115082;-65
2021/08/16 01:53:23;;;;;;;14.88;9.68;;;;;;;22.34;63.03;98411.38;263182;1093;115401;-62
2021/08/16 01:58:27;;;;;;;13.28;8.95;;;;;;;22.32;63.14;98416.16;263174;1092;115585;-63
2021/08/16 02:03:30;;;;;;;13.90;10.83;;;;;;;22.32;63.40;98397.18;263242;1092;115692;-63
2021/08/16 02:08:34;;;;;;;18.68;11.08;;;;;;;22.32;63.38;98383.63;263229;1092;115736;-62
2021/08/16 02:13:38;;;;;;;17.98;10.10;;;;;;;22.35;63.71;98390.52;263190;1093;116092;-64
2021/08/16 02:18:41;;;;;;;15.88;9.43;;;;;;;22.37;63.66;98385.77;263238;1093;117525;-69
2021/08/16 02:23:45;;;;;;;15.53;9.25;;;;;;;22.37;63.66;98391.19;263276;1092;115162;-63
2021/08/16 02:28:49;;;;;;;19.93;12.68;;;;;;;22.40;64.19;98445.89;263288;1092;115734;-66
2021/08/16 02:33:52;;;;;;;18.68;11.83;;;;;;;22.50;64.07;98414.95;263167;1092;114920;-61
2021/08/16 02:38:56;;;;;;;15.45;11.33;;;;;;;22.53;64.28;98401.86;263114;1093;116348;-65
2021/08/16 02:43:59;;;;;;;19.55;12.35;;;;;;;22.50;64.25;98387.83;263158;1092;115460;-60
2021/08/16 02:49:03;;;;;;;15.88;10.70;;;;;;;22.50;63.93;98375.11;263192;1093;115054;-67
2021/08/16 02:54:07;;;;;;;17.55;11.03;;;;;;;22.54;64.00;98375.57;263296;1093;115743;-67
2021/08/16 02:59:10;;;;;;;19.65;11.28;;;;;;;22.56;64.09;98381.66;263215;1093;115043;-61
2021/08/16 03:04:14;;;;;;;20.75;12.10;;;;;;;22.57;64.32;98358.92;263187;1092;115170;-62
2021/08/16 03:09:17;;;;;;;18.00;12.45;;;;;;;22.55;64.41;98374.53;263246;1092;115451;-64
2021/08/16 03:14:21;;;;;;;18.23;11.18;;;;;;;22.53;64.39;98368.48;263228;1093;117495;-64
2021/08/16 03:19:26;;;;;;;18.73;10.53;;;;;;;22.53;64.48;98387.46;263129;1092;115244;-64
2021/08/16 03:24:32;;;;;;;21.60;12.57;;;;;;;22.52;63.96;98377.63;263312;1093;115107;-61
2021/08/16 03:29:35;;;;;;;20.20;12.07;;;;;;;22.51;64.68;98387.63;263189;1093;115393;-67
2021/08/16 03:34:40;;;;;;;18.85;11.83;;;;;;;22.48;64.22;98363.59;263144;1093;115299;-63
2021/08/16 03:39:43;;;;;;;15.23;11.00;;;;;;;22.42;64.34;98359.78;263127;1093;115362;-63
2021/08/16 03:44:47;;;;;;;20.30;12.13;;;;;;;22.37;64.31;98345.09;263107;1092;115193;-63
2021/08/16 03:49:51;;;;;;;232.73;171.87;;;;;;;22.57;65.25;98335.35;263209;1092;115466;-65
2021/08/16 03:54:55;;;;;;;41.23;30.43;;;;;;;22.75;64.87;98332.23;263154;1092;115870;-62
2021/08/16 03:59:58;;;;;;;47.63;35.63;;;;;;;22.86;64.64;98329.05;263267;1093;115423;-63
2021/08/16 04:05:02;;;;;;;65.97;54.93;;;;;;;23.04;64.79;98311.52;263084;1093;115929;-64
2021/08/16 04:10:06;;;;;;;38.70;28.90;;;;;;;23.25;64.61;98299.82;263093;1093;115595;-60
2021/08/16 04:15:16;;;;;;;29.30;22.28;;;;;;;23.43;64.42;98289.33;263158;1093;115338;-62
2021/08/16 04:20:20;;;;;;;55.10;43.53;;;;;;;23.50;63.98;98284.78;263148;1093;115616;-68
2021/08/16 04:25:24;;;;;;;25.33;17.43;;;;;;;23.53;63.77;98276.25;263167;1092;115726;-64
2021/08/16 04:30:27;;;;;;;18.25;12.30;;;;;;;23.50;63.54;98290.22;263309;1093;115450;-62
2021/08/16 04:35:31;;;;;;;22.00;12.73;;;;;;;23.34;63.13;98304.09;263210;1093;115726;-63
2021/08/16 04:40:35;;;;;;;;;;;;;;;23.28;63.37;98302.16;263085;1092;116348;-63
2021/08/16 04:45:39;;;;;;;19.33;11.90;;;;;;;23.27;63.86;98304.03;263267;1093;101413;-65
2021/08/16 04:50:43;;;;;;;17.90;11.80;;;;;;;23.32;63.86;98301.56;263133;1093;115144;-66
2021/08/16 04:55:47;;;;;;;17.77;11.27;;;;;;;23.29;63.60;98295.67;263099;1093;116124;-64
2021/08/16 05:00:50;;;;;;;16.35;11.15;;;;;;;23.17;63.53;98284.52;263063;1093;115555;-65
2021/08/16 05:05:55;;;;;;;27.45;12.55;;;;;;;23.09;63.61;98280.03;263026;1092;115775;-64
2021/08/16 05:10:58;;;;;;;19.38;11.50;;;;;;;23.10;63.86;98273.59;263127;1093;208053;-65
2021/08/16 05:16:02;;;;;;;19.90;10.88;;;;;;;23.14;64.13;98293.88;262801;1093;115121;-65
2021/08/16 05:21:06;;;;;;;168.70;126.88;;;;;;;23.21;64.01;98293.94;263134;1092;115527;-64
2021/08/16 05:26:09;;;;;;;35.23;20.38;;;;;;;23.29;64.23;98301.94;263122;1093;115858;-67
2021/08/16 05:31:13;;;;;;;106.80;59.25;;;;;;;23.31;64.13;98318.89;263089;1092;116870;-63
2021/08/16 05:36:19;;;;;;;107.68;69.50;;;;;;;23.37;64.29;98318.13;263239;1092;115843;-71
2021/08/16 05:41:23;;;;;;;40.47;22.97;;;;;;;23.48;64.51;98335.77;263174;1092;115543;-70
2021/08/16 05:46:26;;;;;;;34.75;19.43;;;;;;;23.54;64.31;98342.30;263319;1093;115280;-67
2021/08/16 05:51:30;;;;;;;27.48;16.18;;;;;;;23.56;64.00;98351.08;263107;1092;115787;-65
2021/08/16 05:56:33;;;;;;;21.15;13.53;;;;;;;23.59;64.09;98370.55;262772;1092;116525;-67
2021/08/16 06:01:39;;;;;;;22.48;13.83;;;;;;;23.68;64.29;98363.14;263153;1092;115350;-69
2021/08/16 06:06:43;;;;;;;21.60;13.10;;;;;;;23.78;64.28;98384.55;263206;1092;115386;-62
2021/08/16 06:11:46;;;;;;;24.60;13.05;;;;;;;23.86;64.20;98399.88;263232;1093;116425;-64
2021/08/16 06:16:50;;;;;;;22.60;13.55;;;;;;;23.90;64.11;98399.27;263120;1093;115390;-63
2021/08/16 06:21:53;;;;;;;25.80;17.73;;;;;;;23.89;63.82;98400.32;263088;1092;115329;-62
2021/08/16 06:26:58;;;;;;;18.23;11.23;;;;;;;23.83;63.84;98401.94;263176;1092;115409;-63
2021/08/16 06:32:01;;;;;;;;;;;;;;;23.80;63.71;98407.75;263244;1093;115633;-61
2021/08/16 06:37:05;;;;;;;19.47;9.93;;;;;;;23.78;63.95;98409.02;263201;1092;102880;-65
2021/08/16 06:42:09;;;;;;;20.50;10.58;;;;;;;23.79;63.98;98411.52;263221;1092;115433;-64
2021/08/16 06:47:14;;;;;;;15.68;11.15;;;;;;;23.79;64.22;98406.09;262658;1092;115160;-66
2021/08/16 06:52:18;;;;;;;153.73;124.57;;;;;;;23.83;64.53;98410.09;263111;1092;116134;-65
2021/08/16 06:57:24;;;;;;;15.60;11.18;;;;;;;23.88;64.24;98408.66;263196;1093;116537;-65
2021/08/16 07:02:28;;;;;;;14.40;9.83;;;;;;;23.90;64.07;98414.75;263111;1093;115038;-64
2021/08/16 07:07:32;;;;;;;15.40;9.33;;;;;;;23.97;64.27;98415.64;263104;1093;115756;-64
2021/08/16 07:12:36;;;;;;;14.33;9.00;;;;;;;24.01;63.94;98416.92;263197;1093;115606;-66
2021/08/16 07:17:40;;;;;;;15.93;9.28;;;;;;;24.05;63.93;98429.95;263129;1093;115760;-61
2021/08/16 07:22:43;;;;;;;16.08;9.45;;;;;;;24.11;63.73;98431.02;263091;1093;115854;-62
2021/08/16 07:27:47;;;;;;;131.58;102.98;;;;;;;24.16;63.49;98417.69;263133;1092;114868;-64
2021/08/16 07:32:54;;;;;;;39.27;29.73;;;;;;;24.28;63.92;98413.37;263047;1092;116440;-65
2021/08/16 07:37:57;;;;;;;13.98;9.80;;;;;;;24.40;63.69;98415.56;263121;1092;115798;-65
2021/08/16 07:43:07;;;;;;;17.28;8.95;;;;;;;24.47;63.43;98419.19;263012;1093;115277;-62
2021/08/16 07:48:25;;;;;;;14.80;9.13;;;;;;;24.57;63.42;98427.84;263338;1093;115216;-61
2021/08/16 07:53:46;;;;;;;18.30;14.67;;;;;;;24.66;63.19;98423.06;262976;1092;115479;-65
2021/08/16 07:58:57;;;;;;;14.70;8.57;;;;;;;24.72;62.59;98425.81;262358;1093;115696;-64
2021/08/16 08:04:14;;;;;;;11.17;7.87;;;;;;;24.75;62.35;98430.86;262367;1093;115398;-66
2021/08/16 08:09:17;;;;;;;13.73;7.53;;;;;;;24.78;62.49;98435.91;263080;1093;115922;-62
2021/08/16 08:14:21;;;;;;;24.33;9.60;;;;;;;24.86;62.41;98437.61;263279;1092;115418;-62
2021/08/16 08:19:31;;;;;;;11.67;6.77;;;;;;;24.95;62.57;98438.30;263015;1094;115398;-63
2021/08/16 08:24:38;;;;;;;15.30;7.60;;;;;;;25.04;62.43;98444.43;262908;1095;115212;-64
2021/08/16 08:29:42;;;;;;;14.80;7.70;;;;;;;25.10;62.22;98435.42;262944;1095;115357;-64
2021/08/16 08:34:46;;;;;;;25.47;11.87;;;;;;;25.16;62.25;98440.09;263032;1093;115179;-65
2021/08/16 08:39:49;;;;;;;20.03;15.83;;;;;;;25.20;62.14;98439.51;263015;1094;116072;-64
2021/08/16 08:44:55;;;;;;;82.72;57.93;;;;;;;25.30;62.01;98438.26;262756;1095;114928;-65
2021/08/16 08:49:59;;;;;;;20.13;9.93;;;;;;;25.35;61.96;98430.33;262779;1096;115193;-65
2021/08/16 08:55:02;;;;;;;18.30;10.08;;;;;;;25.43;62.10;98432.86;262882;1093;115305;-65
2021/08/16 09:00:26;;;;;;;18.20;10.08;;;;;;;25.56;62.26;98432.06;263359;1092;115234;-63
2021/08/16 09:05:32;;;;;;;18.40;10.83;;;;;;;25.63;62.19;98435.63;262784;1093;115494;-65
2021/08/16 09:10:38;;;;;;;23.13;10.50;;;;;;;25.77;62.02;98425.59;263102;1093;115412;-66
2021/08/16 09:15:42;;;;;;;13.90;9.50;;;;;;;25.86;62.09;98427.11;262838;1093;115371;-64
2021/08/16 09:20:52;;;;;;;;;;;;;;;25.92;61.98;98412.65;263254;1093;115380;-66
2021/08/16 09:25:57;;;;;;;17.13;9.73;;;;;;;25.92;61.89;98409.92;263236;1093;102183;-63
2021/08/16 09:31:16;;;;;;;20.77;9.83;;;;;;;25.98;61.53;98400.05;263116;1093;115805;-64
2021/08/16 09:36:21;;;;;;;18.77;9.70;;;;;;;26.12;61.54;98394.40;262826;1092;116487;-66
2021/08/16 09:41:26;;;;;;;14.80;9.30;;;;;;;26.27;61.45;98385.98;262317;1092;116418;-66
2021/08/16 09:46:30;;;;;;;28.07;17.57;;;;;;;26.45;61.88;98382.58;263092;1092;115476;-64
2021/08/16 09:51:35;;;;;;;15.20;9.87;;;;;;;26.62;61.29;98375.64;263135;1093;115415;-64
2021/08/16 09:56:41;;;;;;;17.97;9.63;;;;;;;26.72;60.63;98375.19;263044;1093;115536;-65
2021/08/16 10:01:46;;;;;;;16.00;9.83;;;;;;;26.78;60.79;98368.04;262987;1092;115643;-62
2021/08/16 10:06:56;;;;;;;15.90;9.83;;;;;;;26.82;60.53;98372.01;263071;1092;115451;-66
2021/08/16 10:12:19;;;;;;;12.80;8.87;;;;;;;26.93;60.44;98370.48;262572;1092;115590;-62
2021/08/16 10:17:28;;;;;;;17.28;8.18;;;;;;;27.08;59.75;98366.44;263118;1092;115454;-63
2021/08/16 10:22:39;;;;;;;11.07;6.70;;;;;;;27.25;59.10;98360.50;262778;1093;114967;-63
2021/08/16 10:27:44;;;;;;;18.53;7.17;;;;;;;27.42;58.13;98356.19;263121;1093;118288;-64
2021/08/16 10:32:47;;;;;;;12.50;5.63;;;;;;;27.61;57.43;98362.56;263132;1093;115325;-66
2021/08/16 10:37:51;;;;;;;12.35;5.25;;;;;;;27.77;56.41;98350.28;263112;1093;115619;-65
2021/08/16 10:43:06;;;;;;;10.33;5.83;;;;;;;27.92;55.65;98339.86;263145;1093;116018;-64
2021/08/16 10:48:09;;;;;;;;;;;;;;;28.10;55.04;98341.79;263341;1092;116737;-65
2021/08/16 10:53:13;;;;;;;11.17;7.97;;;;;;;28.15;54.48;98332.89;263185;1092;101837;-66
2021/08/16 10:58:17;;;;;;;11.33;6.95;;;;;;;28.18;54.62;98326.97;262645;1092;115024;-64
2021/08/16 11:03:25;;;;;;;10.00;6.13;;;;;;;28.27;54.02;98320.98;263150;1092;116328;-64
2021/08/16 11:08:31;;;;;;;8.30;5.53;;;;;;;28.38;53.92;98319.39;263119;1092;115212;-66
2021/08/16 11:13:35;;;;;;;10.70;5.93;;;;;;;28.50;53.50;98319.52;263198;1093;114958;-66
2021/08/16 11:18:38;;;;;;;13.13;5.98;;;;;;;28.64;52.99;98320.19;263255;1092;115927;-65
2021/08/16 11:24:00;;;;;;;12.47;5.83;;;;;;;28.77;52.58;98309.08;263133;1093;114999;-64
2021/08/16 11:29:05;;;;;;;6.43;5.60;;;;;;;28.90;52.19;98308.88;263151;1093;115226;-65
2021/08/16 11:34:10;;;;;;;8.33;5.30;;;;;;;28.96;51.76;98313.44;263136;1092;115199;-64
2021/08/16 11:39:14;;;;;;;7.13;5.93;;;;;;;29.10;51.67;98305.06;263121;1093;115654;-66
2021/08/16 11:44:18;;;;;;;8.65;5.83;;;;;;;29.24;51.22;98307.37;263157;1092;115143;-65
2021/08/16 11:49:25;;;;;;;8.87;5.73;;;;;;;29.46;51.06;98296.72;263125;1093;116679;-63
2021/08/16 11:54:36;;;;;;;6.93;5.40;;;;;;;29.72;50.68;98293.80;263276;1093;115049;-65
2021/08/16 11:59:42;;;;;;;9.13;5.23;;;;;;;29.92;49.74;98288.80;263108;1093;114885;-66
2021/08/16 12:04:49;;;;;;;8.00;4.93;;;;;;;30.09;49.81;98276.02;263126;1093;115301;-62
2021/08/16 12:09:54;;;;;;;6.77;4.73;;;;;;;30.29;49.43;98281.16;262970;1092;117294;-64
2021/08/16 12:15:04;;;;;;;8.40;5.73;;;;;;;30.47;48.64;98284.83;263175;1092;115672;-65
2021/08/16 12:20:09;;;;;;;11.63;4.93;;;;;;;30.60;48.42;98279.06;262857;1092;115273;-63
2021/08/16 12:25:13;;;;;;;7.80;4.70;;;;;;;30.76;47.63;98267.34;263190;1093;115369;-65
2021/08/16 12:30:18;;;;;;;7.20;4.47;;;;;;;30.94;47.58;98265.48;263155;1092;115850;-64
2021/08/16 12:35:21;;;;;;;;;;;;;;;31.12;47.01;98268.04;263172;1092;115413;-67
2021/08/16 12:40:25;;;;;;;10.20;4.35;;;;;;;31.29;47.07;98265.32;263189;1092;102113;-66
2021/08/16 12:45:32;;;;;;;7.37;4.87;;;;;;;31.46;46.48;98257.95;263114;1093;115124;-66
2021/08/16 12:51:01;;;;;;;10.07;4.63;;;;;;;31.65;46.15;98258.51;262238;1093;115176;-65
2021/08/16 12:56:16;;;;;;;8.67;4.33;;;;;;;31.75;45.62;98250.41;261584;1093;115209;-66
2021/08/16 13:02:06;;;;;;;8.10;5.20;;;;;;;31.91;45.35;98254.27;262321;1092;118172;-66
2021/08/16 13:07:46;;;;;;;7.87;3.90;;;;;;;32.04;44.83;98247.58;261386;1093;115162;-65
2021/08/16 13:13:11;;;;;;;10.40;4.83;;;;;;;32.08;44.26;98240.48;261328;1093;115097;-68
2021/08/16 13:18:23;;;;;;;8.33;4.18;;;;;;;32.04;44.09;98240.16;261375;1092;115274;-68
2021/08/16 13:23:27;;;;;;;9.83;4.50;;;;;;;31.98;43.65;98221.06;262942;1093;114722;-66
2021/08/16 13:28:31;;;;;;;10.00;7.20;;;;;;;31.92;43.45;98216.57;262879;1093;115074;-65
2021/08/16 13:33:35;;;;;;;6.13;4.20;;;;;;;31.84;43.03;98205.97;263130;1092;115989;-67
2021/08/16 13:38:39;;;;;;;5.80;4.10;;;;;;;31.79;43.62;98202.06;263169;1092;115000;-67
2021/08/16 13:43:43;;;;;;;7.70;4.70;;;;;;;31.79;43.21;98192.95;263306;1093;115490;-64
2021/08/16 13:48:47;;;;;;;7.55;4.28;;;;;;;31.89;43.71;98190.38;263270;1092;114994;-67
2021/08/16 13:53:50;;;;;;;9.23;3.80;;;;;;;31.88;43.13;98185.97;263160;1092;115131;-67
2021/08/16 13:58:54;;;;;;;;;;;;;;;31.83;42.92;98196.03;263199;1093;115670;-65
2021/08/16 14:03:58;;;;;;;9.87;4.57;;;;;;;31.87;42.93;98178.81;262951;1092;101567;-69
2021/08/16 14:09:02;;;;;;;10.73;5.80;;;;;;;31.98;43.24;98168.77;263160;1093;115135;-69
2021/08/16 14:14:06;;;;;;;6.67;4.10;;;;;;;31.98;43.17;98163.26;263211;1093;115232;-67
2021/08/16 14:19:09;;;;;;;8.57;4.67;;;;;;;31.91;42.67;98163.45;263008;1092;115267;-66
2021/08/16 14:24:13;;;;;;;;;;;;;;;31.89;42.31;98175.79;263274;1092;115658;-67
2021/08/16 14:29:16;;;;;;;8.77;4.77;;;;;;;31.74;42.71;98163.45;263248;1093;101624;-67
2021/08/16 14:34:20;;;;;;;;;;;;;;;31.58;42.45;98167.89;262689;1092;115574;-69
2021/08/16 14:39:28;;;;;;;9.97;4.10;;;;;;;31.41;42.59;98175.33;263278;1093;101420;-67
2021/08/16 14:44:32;;;;;;;22.13;13.13;;;;;;;31.25;42.65;98177.00;263043;1093;114991;-67
2021/08/16 14:49:36;;;;;;;7.07;4.83;;;;;;;31.05;42.64;98169.23;262668;1092;115422;-69
2021/08/16 14:54:40;;;;;;;9.43;4.77;;;;;;;30.85;42.37;98169.71;262898;1093;114503;-66
2021/08/16 14:59:43;;;;;;;;;;;;;;;30.69;42.46;98173.22;263065;1092;115634;-69
2021/08/16 15:04:47;;;;;;;7.40;4.40;;;;;;;30.50;42.55;98164.34;263239;1092;102433;-68
2021/08/16 15:09:50;;;;;;;;;;;;;;;30.36;42.87;98160.22;263220;1093;115271;-68
2021/08/16 15:14:55;;;;;;;;;;;;;;;30.24;43.40;98154.79;262845;1092;101397;-64
2021/08/16 15:19:59;;;;;;;8.17;4.27;;;;;;;30.11;43.07;98157.78;263193;1092;101475;-65
2021/08/16 15:25:04;;;;;;;10.13;4.07;;;;;;;30.01;43.21;98158.39;262979;1092;115046;-65
2021/08/16 15:30:10;;;;;;;8.30;4.37;;;;;;;29.89;43.60;98152.08;263270;1093;114865;-65
2021/08/16 15:35:14;;;;;;;11.50;4.23;;;;;;;29.83;43.37;98164.05;263106;1093;114549;-69
2021/08/16 15:40:18;;;;;;;11.47;4.47;;;;;;;29.75;43.94;98165.23;263075;1092;115854;-66
2021/08/16 15:45:22;;;;;;;12.53;4.28;;;;;;;29.66;44.03;98169.43;262811;1092;115169;-66
2021/08/16 15:50:25;;;;;;;;;;;;;;;29.55;43.80;98154.63;263166;1092;115345;-66
2021/08/16 15:55:29;;;;;;;6.93;4.43;;;;;;;29.44;43.87;98150.79;263172;1093;101410;-69
2021/08/16 16:00:36;;;;;;;9.63;4.40;;;;;;;29.35;44.16;98154.98;263238;1092;114883;-65
2021/08/16 16:05:44;;;;;;;9.63;4.27;;;;;;;29.28;44.07;98161.63;263321;1093;114583;-64
2021/08/16 16:10:48;;;;;;;8.77;4.70;;;;;;;29.20;44.26;98151.86;263744;1092;114914;-68
2021/08/16 16:15:51;;;;;;;10.80;5.03;;;;;;;29.15;44.73;98165.45;263219;1092;115231;-62
2021/08/16 16:20:55;;;;;;;6.85;4.60;;;;;;;29.08;44.71;98160.08;262902;1092;115210;-66
2021/08/16 16:25:59;;;;;;;11.35;5.38;;;;;;;29.00;44.98;98163.97;263519;1093;115362;-70
2021/08/16 16:31:04;;;;;;;9.27;4.80;;;;;;;28.93;45.28;98165.95;263657;1092;115883;-68
2021/08/16 16:36:07;;;;;;;13.47;5.23;;;;;;;28.84;45.53;98180.22;263769;1093;115239;-68
2021/08/16 16:41:16;;;;;;;12.70;6.48;;;;;;;28.77;45.92;98183.09;263431;1093;115111;-66
2021/08/16 16:46:19;;;;;;;14.47;5.60;;;;;;;28.68;46.06;98168.05;263477;1093;115510;-69
2021/08/16 16:51:26;;;;;;;22.70;8.87;;;;;;;28.59;46.41;98174.91;263279;1092;115410;-65
2021/08/16 16:56:30;;;;;;;12.80;6.17;;;;;;;28.50;46.71;98179.89;263438;1092;116406;-66
2021/08/16 17:01:34;;;;;;;17.60;6.03;;;;;;;28.43;46.95;98182.72;263497;1093;115574;-66
2021/08/16 17:06:38;;;;;;;;;;;;;;;28.36;46.91;98172.87;263423;1092;114701;-68
2021/08/16 17:11:42;;;;;;;13.23;7.57;;;;;;;28.29;46.87;98168.34;263523;1093;101457;-64
2021/08/16 17:16:45;;;;;;;19.95;8.38;;;;;;;28.24;46.72;98170.09;262569;1093;115060;-64
2021/08/16 17:21:50;;;;;;;14.10;8.80;;;;;;;28.19;46.88;98169.92;263428;1092;115225;-70
2021/08/16 17:26:54;;;;;;;10.43;5.80;;;;;;;28.14;46.73;98162.42;263516;1093;115336;-67
2021/08/16 17:31:58;;;;;;;11.58;6.68;;;;;;;28.09;46.73;98159.52;263240;1092;114714;-67
2021/08/16 17:37:02;;;;;;;12.53;7.03;;;;;;;28.05;46.57;98158.31;263136;1093;115138;-69
2021/08/16 17:42:08;;;;;;;10.50;5.03;;;;;;;27.98;46.82;98177.55;263327;1093;115996;-67
2021/08/16 17:47:15;;;;;;;9.17;5.57;;;;;;;27.90;46.75;98175.13;263163;1093;115268;-69
2021/08/16 17:52:19;;;;;;;19.47;14.03;;;;;;;27.85;47.01;98174.13;263296;1093;115566;-69
2021/08/16 17:57:23;;;;;;;39.40;25.80;;;;;;;27.79;47.17;98176.72;263313;1093;116221;-69
2021/08/16 18:02:26;;;;;;;29.73;21.47;;;;;;;27.77;47.18;98183.47;263118;1093;115895;-67
2021/08/16 18:07:32;;;;;;;34.40;25.65;;;;;;;27.73;47.10;98193.16;263134;1093;115982;-68
2021/08/16 18:12:37;;;;;;;18.70;13.73;;;;;;;27.69;47.22;98186.48;263194;1092;115470;-67
2021/08/16 18:17:41;;;;;;;52.00;41.85;;;;;;;27.65;47.47;98196.17;263118;1092;116055;-69
2021/08/16 18:22:44;;;;;;;44.73;33.83;;;;;;;27.62;47.68;98207.59;263110;1093;115935;-69
2021/08/16 18:27:48;;;;;;;32.15;21.68;;;;;;;27.57;47.49;98217.27;263069;1093;115543;-67
2021/08/16 18:32:52;;;;;;;20.40;10.63;;;;;;;27.54;47.59;98216.89;263215;1093;115736;-68
2021/08/16 18:37:56;;;;;;;24.57;13.70;;;;;;;27.50;48.05;98216.50;263116;1093;115564;-67
2021/08/16 18:43:00;;;;;;;15.20;6.80;;;;;;;27.45;47.96;98224.55;263026;1093;115327;-71
2021/08/16 18:48:04;;;;;;;15.20;8.33;;;;;;;27.41;47.99;98226.03;263264;1092;115824;-70
2021/08/16 18:53:08;;;;;;;15.80;8.47;;;;;;;27.37;48.25;98219.35;262916;1092;115363;-69
2021/08/16 18:58:11;;;;;;;14.08;8.65;;;;;;;27.32;47.98;98211.00;263154;1093;115197;-69
2021/08/16 19:03:16;;;;;;;78.13;62.53;;;;;;;27.29;48.52;98227.84;263121;1092;115160;-66
2021/08/16 19:08:20;;;;;;;15.08;10.15;;;;;;;27.26;48.27;98231.02;263154;1092;115394;-69
2021/08/16 19:13:25;;;;;;;15.27;8.30;;;;;;;27.22;48.50;98247.02;263071;1093;115397;-68
2021/08/16 19:18:30;;;;;;;10.63;7.08;;;;;;;27.15;48.61;98251.69;263270;1093;115313;-67
2021/08/16 19:23:35;;;;;;;103.20;82.15;;;;;;;27.06;49.34;98256.54;263147;1092;115371;-66
2021/08/16 19:28:40;;;;;;;18.63;11.10;;;;;;;26.97;49.66;98257.02;263101;1092;115482;-66
2021/08/16 19:33:44;;;;;;;49.53;40.13;;;;;;;26.88;49.72;98256.45;263335;1093;115129;-65
2021/08/16 19:38:50;;;;;;;19.05;7.90;;;;;;;26.79;50.36;98271.41;263177;1092;115519;-63
2021/08/16 19:43:53;;;;;;;17.20;6.60;;;;;;;26.50;50.57;98270.93;263552;1092;115130;-70
2021/08/16 19:48:57;;;;;;;;;;;;;;;26.21;51.15;98268.69;263331;1092;114849;-68
2021/08/16 19:54:03;;;;;;;190.33;157.93;;;;;;;25.85;52.09;98272.73;263054;1093;102918;-65
2021/08/16 19:59:07;;;;;;;12.13;8.40;;;;;;;25.51;52.87;98255.57;263175;1092;116620;-63
2021/08/16 20:04:11;;;;;;;12.43;6.53;;;;;;;25.31;54.09;98238.39;262739;1092;115445;-67
2021/08/16 20:09:14;;;;;;;11.88;6.73;;;;;;;25.08;54.47;98208.80;262860;1092;115752;-71
2021/08/16 20:14:19;;;;;;;13.45;7.03;;;;;;;24.94;55.18;98189.73;263213;1093;115232;-69
2021/08/16 20:19:23;;;;;;;10.73;5.93;;;;;;;24.80;55.88;98185.32;263155;1093;115329;-69
2021/08/16 20:24:26;;;;;;;12.25;5.95;;;;;;;24.64;55.89;98167.49;263296;1092;116424;-66
2021/08/16 20:29:30;;;;;;;9.58;6.38;;;;;;;24.45;56.23;98182.71;262918;1092;115146;-66
2021/08/16 20:34:34;;;;;;;10.18;5.95;;;;;;;24.27;56.67;98183.26;263431;1093;114920;-68
2021/08/16 20:39:37;;;;;;;;;;;;;;;24.12;57.27;98176.28;263258;1093;115676;-68
2021/08/16 20:44:41;;;;;;;13.03;8.63;;;;;;;23.98;57.84;98178.11;263254;1092;101484;-67
2021/08/16 20:49:46;;;;;;;15.17;9.27;;;;;;;23.91;58.08;98188.11;263165;1092;115490;-64
2021/08/16 20:54:50;;;;;;;14.93;6.60;;;;;;;23.83;58.28;98184.52;263446;1092;115271;-65
2021/08/16 20:59:54;;;;;;;11.13;6.65;;;;;;;23.79;58.70;98183.25;263244;1091;115181;-69
2021/08/16 21:05:00;;;;;;;15.43;7.20;;;;;;;23.79;58.92;98185.97;263262;1091;115269;-69
2021/08/16 21:10:06;;;;;;;12.97;6.80;;;;;;;23.76;59.29;98190.97;262878;1093;115719;-69
2021/08/16 21:15:10;;;;;;;13.93;6.20;;;;;;;23.77;59.28;98188.04;263260;1093;116239;-66
2021/08/16 21:20:14;;;;;;;13.05;7.03;;;;;;;23.75;59.44;98160.25;263276;1093;115545;-64
2021/08/16 21:25:17;;;;;;;12.98;6.45;;;;;;;23.73;59.55;98153.33;263041;1092;115757;-65
2021/08/16 21:30:22;;;;;;;13.40;6.90;;;;;;;23.71;59.73;98139.96;263034;1093;115661;-62
2021/08/16 21:35:26;;;;;;;12.17;6.50;;;;;;;23.67;59.99;98171.23;263176;1092;115724;-66
2021/08/16 21:40:29;;;;;;;11.00;6.38;;;;;;;23.61;60.18;98181.04;263185;1093;114920;-66
2021/08/16 21:45:33;;;;;;;12.70;6.30;;;;;;;23.57;60.30;98189.77;263185;1093;115791;-66
2021/08/16 21:50:38;;;;;;;10.23;6.38;;;;;;;23.58;60.58;98218.63;263212;1092;115596;-69
2021/08/16 21:55:41;;;;;;;11.80;6.17;;;;;;;23.57;60.60;98225.08;263313;1093;118059;-69
2021/08/16 22:00:45;;;;;;;10.85;6.60;;;;;;;23.57;60.75;98235.95;263348;1093;115184;-66
2021/08/16 22:05:50;;;;;;;11.45;6.98;;;;;;;23.51;60.62;98243.03;263250;1093;115210;-63
2021/08/16 22:10:54;;;;;;;8.23;5.37;;;;;;;23.46;61.00;98212.05;262471;1093;115384;-64
2021/08/16 22:15:59;;;;;;;10.18;4.80;;;;;;;23.43;60.88;98207.84;263285;1092;115540;-69
2021/08/16 22:21:05;;;;;;;9.57;5.23;;;;;;;23.33;60.54;98181.03;263352;1092;115850;-65
2021/08/16 22:26:09;;;;;;;11.80;5.37;;;;;;;23.18;60.61;98161.31;263060;1092;115437;-66
2021/08/16 22:31:12;;;;;;;8.73;5.65;;;;;;;22.98;60.71;98161.14;262820;1091;115549;-65
2021/08/16 22:36:16;;;;;;;9.58;5.73;;;;;;;22.88;60.82;98166.87;263249;1091;114807;-67
2021/08/16 22:41:20;;;;;;;9.10;5.35;;;;;;;22.79;61.01;98189.77;263337;1092;114841;-69
2021/08/16 22:46:23;;;;;;;8.43;5.08;;;;;;;22.70;61.37;98177.35;262878;1093;115579;-68
2021/08/16 22:51:29;;;;;;;9.70;5.00;;;;;;;22.62;61.18;98189.17;263219;1092;114893;-69
2021/08/16 22:56:32;;;;;;;7.90;5.30;;;;;;;22.53;61.75;98219.31;262270;1093;115479;-63
2021/08/16 23:01:36;;;;;;;9.80;5.38;;;;;;;22.45;61.96;98198.56;263112;1092;115121;-64
2021/08/16 23:06:40;;;;;;;8.40;5.28;;;;;;;22.36;62.05;98192.43;263463;1092;114919;-63
2021/08/16 23:11:44;;;;;;;7.80;4.75;;;;;;;22.33;62.26;98192.81;263378;1092;115335;-66